sensor_id;sensor_type;location;lat;lon;timestamp;temperature;humidity
44723;DHT22;30451;48.638;10.624;2023-06-26T00:00:15;27.50;43.50
44723;DHT22;30451;48.638;10.624;2023-06-26T00:02:41;27.50;43.50
44723;DHT22;30451;48.638;10.624;2023-06-26T00:05:07;27.50;43.50
44723;DHT22;30451;48.638;10.624;2023-06-26T00:07:33;27.50;43.60
44723;DHT22;30451;48.638;10.624;2023-06-26T00:10:02;27.50;43.60
44723;DHT22;30451;48.638;10.624;2023-06-26T00:12:29;27.40;43.50
44723;DHT22;30451;48.638;10.624;2023-06-26T00:14:54;27.40;43.50
44723;DHT22;30451;48.638;10.624;2023-06-26T00:17:20;27.40;43.50
44723;DHT22;30451;48.638;10.624;2023-06-26T00:19:46;27.40;43.60
44723;DHT22;30451;48.638;10.624;2023-06-26T00:22:12;27.40;43.50
44723;DHT22;30451;48.638;10.624;2023-06-26T00:24:37;27.40;43.50
44723;DHT22;30451;48.638;10.624;2023-06-26T00:27:03;27.40;43.60
44723;DHT22;30451;48.638;10.624;2023-06-26T00:29:29;27.40;43.60
44723;DHT22;30451;48.638;10.624;2023-06-26T00:31:54;27.40;43.60
44723;DHT22;30451;48.638;10.624;2023-06-26T00:34:20;27.40;43.60
44723;DHT22;30451;48.638;10.624;2023-06-26T00:36:45;27.40;43.60
44723;DHT22;30451;48.638;10.624;2023-06-26T00:39:11;27.40;43.60
44723;DHT22;30451;48.638;10.624;2023-06-26T00:41:37;27.40;43.60
44723;DHT22;30451;48.638;10.624;2023-06-26T00:44:06;27.40;43.70
44723;DHT22;30451;48.638;10.624;2023-06-26T00:46:32;27.40;43.70
44723;DHT22;30451;48.638;10.624;2023-06-26T00:48:59;27.40;43.70
44723;DHT22;30451;48.638;10.624;2023-06-26T00:51:28;27.40;43.70
44723;DHT22;30451;48.638;10.624;2023-06-26T00:53:54;27.30;43.70
44723;DHT22;30451;48.638;10.624;2023-06-26T00:56:20;27.30;43.60
44723;DHT22;30451;48.638;10.624;2023-06-26T00:58:46;27.30;43.70
44723;DHT22;30451;48.638;10.624;2023-06-26T01:01:12;27.30;43.70
44723;DHT22;30451;48.638;10.624;2023-06-26T01:03:49;27.30;43.80
44723;DHT22;30451;48.638;10.624;2023-06-26T01:06:18;27.30;43.70
44723;DHT22;30451;48.638;10.624;2023-06-26T01:08:44;27.30;43.70
44723;DHT22;30451;48.638;10.624;2023-06-26T01:11:11;27.30;43.70
44723;DHT22;30451;48.638;10.624;2023-06-26T01:13:39;27.30;43.80
44723;DHT22;30451;48.638;10.624;2023-06-26T01:16:05;27.30;43.70
44723;DHT22;30451;48.638;10.624;2023-06-26T01:18:32;27.30;43.80
44723;DHT22;30451;48.638;10.624;2023-06-26T01:20:59;27.30;43.80
44723;DHT22;30451;48.638;10.624;2023-06-26T01:26:19;27.20;43.70
44723;DHT22;30451;48.638;10.624;2023-06-26T01:28:46;27.20;43.70
44723;DHT22;30451;48.638;10.624;2023-06-26T01:31:12;27.20;43.70
44723;DHT22;30451;48.638;10.624;2023-06-26T01:33:40;27.20;43.80
44723;DHT22;30451;48.638;10.624;2023-06-26T01:36:06;27.20;43.80
44723;DHT22;30451;48.638;10.624;2023-06-26T01:38:32;27.20;44.30
44723;DHT22;30451;48.638;10.624;2023-06-26T01:40:58;27.20;43.80
44723;DHT22;30451;48.638;10.624;2023-06-26T01:49:12;27.20;43.80
44723;DHT22;30451;48.638;10.624;2023-06-26T01:51:45;27.20;43.80
44723;DHT22;30451;48.638;10.624;2023-06-26T01:54:17;27.20;44.40
44723;DHT22;30451;48.638;10.624;2023-06-26T01:56:45;27.20;43.90
44723;DHT22;30451;48.638;10.624;2023-06-26T01:59:14;27.20;43.90
44723;DHT22;30451;48.638;10.624;2023-06-26T02:01:40;27.10;43.90
44723;DHT22;30451;48.638;10.624;2023-06-26T02:04:06;27.10;43.90
44723;DHT22;30451;48.638;10.624;2023-06-26T02:06:32;27.10;43.90
44723;DHT22;30451;48.638;10.624;2023-06-26T02:08:58;27.10;43.90
44723;DHT22;30451;48.638;10.624;2023-06-26T02:11:24;27.10;43.90
44723;DHT22;30451;48.638;10.624;2023-06-26T02:13:49;27.10;43.90
44723;DHT22;30451;48.638;10.624;2023-06-26T02:16:15;27.10;43.90
44723;DHT22;30451;48.638;10.624;2023-06-26T02:18:40;27.10;43.90
44723;DHT22;30451;48.638;10.624;2023-06-26T02:21:07;27.10;43.90
44723;DHT22;30451;48.638;10.624;2023-06-26T02:23:32;27.10;43.90
44723;DHT22;30451;48.638;10.624;2023-06-26T02:25:58;27.10;44.00
44723;DHT22;30451;48.638;10.624;2023-06-26T02:28:24;27.10;44.00
44723;DHT22;30451;48.638;10.624;2023-06-26T02:30:50;27.10;44.00
44723;DHT22;30451;48.638;10.624;2023-06-26T02:33:15;27.10;44.00
44723;DHT22;30451;48.638;10.624;2023-06-26T02:35:41;27.00;44.00
44723;DHT22;30451;48.638;10.624;2023-06-26T02:38:07;27.00;44.00
44723;DHT22;30451;48.638;10.624;2023-06-26T02:40:32;27.00;44.00
44723;DHT22;30451;48.638;10.624;2023-06-26T02:42:58;27.10;44.00
44723;DHT22;30451;48.638;10.624;2023-06-26T02:45:24;27.00;44.00
44723;DHT22;30451;48.638;10.624;2023-06-26T02:47:49;27.00;44.00
44723;DHT22;30451;48.638;10.624;2023-06-26T02:50:15;27.00;44.00
44723;DHT22;30451;48.638;10.624;2023-06-26T02:52:41;27.00;44.00
44723;DHT22;30451;48.638;10.624;2023-06-26T02:55:07;27.00;44.00
44723;DHT22;30451;48.638;10.624;2023-06-26T02:57:32;27.00;44.00
44723;DHT22;30451;48.638;10.624;2023-06-26T02:59:58;27.00;44.00
44723;DHT22;30451;48.638;10.624;2023-06-26T03:02:23;27.00;44.10
44723;DHT22;30451;48.638;10.624;2023-06-26T03:04:49;27.00;44.10
44723;DHT22;30451;48.638;10.624;2023-06-26T03:07:15;27.00;44.10
44723;DHT22;30451;48.638;10.624;2023-06-26T03:09:41;27.00;44.10
44723;DHT22;30451;48.638;10.624;2023-06-26T03:12:07;27.00;44.10
44723;DHT22;30451;48.638;10.624;2023-06-26T03:14:33;27.00;44.10
44723;DHT22;30451;48.638;10.624;2023-06-26T03:16:59;26.90;44.00
44723;DHT22;30451;48.638;10.624;2023-06-26T03:19:28;27.00;44.10
44723;DHT22;30451;48.638;10.624;2023-06-26T03:21:54;26.90;44.00
44723;DHT22;30451;48.638;10.624;2023-06-26T03:24:20;27.00;44.40
44723;DHT22;30451;48.638;10.624;2023-06-26T03:26:46;26.90;44.10
44723;DHT22;30451;48.638;10.624;2023-06-26T03:29:11;26.90;44.10
44723;DHT22;30451;48.638;10.624;2023-06-26T03:31:37;26.90;44.10
44723;DHT22;30451;48.638;10.624;2023-06-26T03:34:03;26.90;44.10
44723;DHT22;30451;48.638;10.624;2023-06-26T03:36:28;26.90;44.10
44723;DHT22;30451;48.638;10.624;2023-06-26T03:38:54;26.90;44.10
44723;DHT22;30451;48.638;10.624;2023-06-26T03:41:22;26.90;44.10
44723;DHT22;30451;48.638;10.624;2023-06-26T03:43:48;26.90;44.60
44723;DHT22;30451;48.638;10.624;2023-06-26T03:46:14;26.90;44.10
44723;DHT22;30451;48.638;10.624;2023-06-26T03:48:40;26.90;44.10
44723;DHT22;30451;48.638;10.624;2023-06-26T03:51:05;26.90;44.10
44723;DHT22;30451;48.638;10.624;2023-06-26T03:53:32;26.90;44.10
44723;DHT22;30451;48.638;10.624;2023-06-26T03:55:58;26.90;44.10
44723;DHT22;30451;48.638;10.624;2023-06-26T03:58:23;26.80;43.70
44723;DHT22;30451;48.638;10.624;2023-06-26T04:00:50;26.90;43.20
44723;DHT22;30451;48.638;10.624;2023-06-26T04:03:16;26.80;42.70
44723;DHT22;30451;48.638;10.624;2023-06-26T04:05:42;26.80;42.40
44723;DHT22;30451;48.638;10.624;2023-06-26T04:08:08;26.80;42.10
44723;DHT22;30451;48.638;10.624;2023-06-26T04:10:33;26.70;41.80
44723;DHT22;30451;48.638;10.624;2023-06-26T04:12:59;26.70;41.70
44723;DHT22;30451;48.638;10.624;2023-06-26T04:15:25;26.70;41.70
44723;DHT22;30451;48.638;10.624;2023-06-26T04:17:50;26.60;41.70
44723;DHT22;30451;48.638;10.624;2023-06-26T04:20:16;26.60;41.70
44723;DHT22;30451;48.638;10.624;2023-06-26T04:22:42;26.60;41.60
44723;DHT22;30451;48.638;10.624;2023-06-26T04:25:08;26.60;41.60
44723;DHT22;30451;48.638;10.624;2023-06-26T04:27:33;26.50;41.60
44723;DHT22;30451;48.638;10.624;2023-06-26T04:29:59;26.50;41.50
44723;DHT22;30451;48.638;10.624;2023-06-26T04:32:25;26.50;41.50
44723;DHT22;30451;48.638;10.624;2023-06-26T04:34:50;26.50;41.40
44723;DHT22;30451;48.638;10.624;2023-06-26T04:37:16;26.50;41.40
44723;DHT22;30451;48.638;10.624;2023-06-26T04:39:42;26.40;41.90
44723;DHT22;30451;48.638;10.624;2023-06-26T04:42:08;26.40;42.00
44723;DHT22;30451;48.638;10.624;2023-06-26T04:44:35;26.40;41.50
44723;DHT22;30451;48.638;10.624;2023-06-26T04:47:03;26.40;41.40
44723;DHT22;30451;48.638;10.624;2023-06-26T04:49:28;26.40;41.50
44723;DHT22;30451;48.638;10.624;2023-06-26T04:51:55;26.30;41.50
44723;DHT22;30451;48.638;10.624;2023-06-26T04:54:21;26.30;41.60
44723;DHT22;30451;48.638;10.624;2023-06-26T04:56:47;26.30;41.70
44723;DHT22;30451;48.638;10.624;2023-06-26T04:59:13;26.30;41.80
44723;DHT22;30451;48.638;10.624;2023-06-26T05:01:40;26.30;41.80
44723;DHT22;30451;48.638;10.624;2023-06-26T05:04:06;26.30;41.90
44723;DHT22;30451;48.638;10.624;2023-06-26T05:06:32;26.30;42.00
44723;DHT22;30451;48.638;10.624;2023-06-26T05:08:58;26.30;42.10
44723;DHT22;30451;48.638;10.624;2023-06-26T05:11:25;26.30;42.10
44723;DHT22;30451;48.638;10.624;2023-06-26T05:13:51;26.30;42.20
44723;DHT22;30451;48.638;10.624;2023-06-26T05:16:17;26.30;42.20
44723;DHT22;30451;48.638;10.624;2023-06-26T05:18:42;26.30;42.30
44723;DHT22;30451;48.638;10.624;2023-06-26T05:21:08;26.30;42.40
44723;DHT22;30451;48.638;10.624;2023-06-26T05:23:34;26.30;42.40
44723;DHT22;30451;48.638;10.624;2023-06-26T05:26:03;26.30;42.40
44723;DHT22;30451;48.638;10.624;2023-06-26T05:28:29;26.30;42.50
44723;DHT22;30451;48.638;10.624;2023-06-26T05:30:57;26.30;42.50
44723;DHT22;30451;48.638;10.624;2023-06-26T05:33:24;26.30;42.50
44723;DHT22;30451;48.638;10.624;2023-06-26T05:35:54;26.30;42.60
44723;DHT22;30451;48.638;10.624;2023-06-26T05:38:20;26.30;42.60
44723;DHT22;30451;48.638;10.624;2023-06-26T05:40:46;26.30;42.70
44723;DHT22;30451;48.638;10.624;2023-06-26T05:43:12;26.30;42.70
44723;DHT22;30451;48.638;10.624;2023-06-26T05:45:38;26.30;42.80
44723;DHT22;30451;48.638;10.624;2023-06-26T05:48:04;26.20;42.80
44723;DHT22;30451;48.638;10.624;2023-06-26T05:50:30;26.30;42.90
44723;DHT22;30451;48.638;10.624;2023-06-26T05:52:56;26.20;42.80
44723;DHT22;30451;48.638;10.624;2023-06-26T05:55:22;26.20;42.80
44723;DHT22;30451;48.638;10.624;2023-06-26T05:57:48;26.20;42.80
44723;DHT22;30451;48.638;10.624;2023-06-26T06:00:15;26.30;44.90
44723;DHT22;30451;48.638;10.624;2023-06-26T06:02:42;26.30;45.10
44723;DHT22;30451;48.638;10.624;2023-06-26T06:05:08;26.30;44.50
44723;DHT22;30451;48.638;10.624;2023-06-26T06:07:34;26.30;44.70
44723;DHT22;30451;48.638;10.624;2023-06-26T06:10:00;26.30;44.40
44723;DHT22;30451;48.638;10.624;2023-06-26T06:12:27;26.30;44.10
44723;DHT22;30451;48.638;10.624;2023-06-26T06:14:52;26.30;44.80
44723;DHT22;30451;48.638;10.624;2023-06-26T06:17:20;26.30;44.50
44723;DHT22;30451;48.638;10.624;2023-06-26T06:19:45;26.30;44.80
44723;DHT22;30451;48.638;10.624;2023-06-26T06:22:11;26.30;45.20
44723;DHT22;30451;48.638;10.624;2023-06-26T06:24:37;26.30;45.20
44723;DHT22;30451;48.638;10.624;2023-06-26T06:27:03;26.40;45.20
44723;DHT22;30451;48.638;10.624;2023-06-26T06:29:29;26.40;45.60
44723;DHT22;30451;48.638;10.624;2023-06-26T06:31:54;26.30;45.50
44723;DHT22;30451;48.638;10.624;2023-06-26T06:34:20;26.40;46.00
44723;DHT22;30451;48.638;10.624;2023-06-26T06:36:46;26.40;45.80
44723;DHT22;30451;48.638;10.624;2023-06-26T06:39:12;26.40;45.40
44723;DHT22;30451;48.638;10.624;2023-06-26T06:41:38;26.40;45.10
44723;DHT22;30451;48.638;10.624;2023-06-26T06:44:04;26.40;45.80
44723;DHT22;30451;48.638;10.624;2023-06-26T06:46:29;26.40;45.80
44723;DHT22;30451;48.638;10.624;2023-06-26T06:48:55;26.40;45.90
44723;DHT22;30451;48.638;10.624;2023-06-26T06:51:22;26.40;45.50
44723;DHT22;30451;48.638;10.624;2023-06-26T06:53:47;26.50;45.50
44723;DHT22;30451;48.638;10.624;2023-06-26T06:56:13;26.50;45.50
44723;DHT22;30451;48.638;10.624;2023-06-26T06:58:38;26.50;45.70
44723;DHT22;30451;48.638;10.624;2023-06-26T07:01:11;26.50;45.70
44723;DHT22;30451;48.638;10.624;2023-06-26T07:03:37;26.50;45.70
44723;DHT22;30451;48.638;10.624;2023-06-26T07:06:02;26.60;45.30
44723;DHT22;30451;48.638;10.624;2023-06-26T07:08:28;26.50;45.20
44723;DHT22;30451;48.638;10.624;2023-06-26T07:10:54;26.60;45.50
44723;DHT22;30451;48.638;10.624;2023-06-26T07:13:22;26.60;45.50
44723;DHT22;30451;48.638;10.624;2023-06-26T07:15:47;26.60;46.10
44723;DHT22;30451;48.638;10.624;2023-06-26T07:18:13;26.60;45.40
44723;DHT22;30451;48.638;10.624;2023-06-26T07:20:39;26.60;46.00
44723;DHT22;30451;48.638;10.624;2023-06-26T07:23:05;26.70;45.30
44723;DHT22;30451;48.638;10.624;2023-06-26T07:25:30;26.70;45.60
44723;DHT22;30451;48.638;10.624;2023-06-26T07:27:56;26.80;45.50
44723;DHT22;30451;48.638;10.624;2023-06-26T07:30:21;26.80;45.30
44723;DHT22;30451;48.638;10.624;2023-06-26T07:32:47;26.80;45.40
44723;DHT22;30451;48.638;10.624;2023-06-26T07:35:12;26.80;45.70
44723;DHT22;30451;48.638;10.624;2023-06-26T07:37:38;26.80;45.60
44723;DHT22;30451;48.638;10.624;2023-06-26T07:40:04;26.80;45.10
44723;DHT22;30451;48.638;10.624;2023-06-26T07:42:30;26.80;45.10
44723;DHT22;30451;48.638;10.624;2023-06-26T07:44:55;26.80;45.20
44723;DHT22;30451;48.638;10.624;2023-06-26T07:47:21;26.90;45.00
44723;DHT22;30451;48.638;10.624;2023-06-26T07:49:46;26.90;45.00
44723;DHT22;30451;48.638;10.624;2023-06-26T07:52:12;26.90;44.80
44723;DHT22;30451;48.638;10.624;2023-06-26T07:54:40;26.90;45.00
44723;DHT22;30451;48.638;10.624;2023-06-26T07:57:06;26.90;45.00
44723;DHT22;30451;48.638;10.624;2023-06-26T07:59:36;27.00;45.00
44723;DHT22;30451;48.638;10.624;2023-06-26T08:02:02;27.00;45.00
44723;DHT22;30451;48.638;10.624;2023-06-26T08:04:29;27.00;45.00
44723;DHT22;30451;48.638;10.624;2023-06-26T08:06:58;27.00;45.30
44723;DHT22;30451;48.638;10.624;2023-06-26T08:09:27;27.00;45.30
44723;DHT22;30451;48.638;10.624;2023-06-26T08:11:53;27.00;45.50
44723;DHT22;30451;48.638;10.624;2023-06-26T08:14:19;27.00;45.30
44723;DHT22;30451;48.638;10.624;2023-06-26T08:16:45;27.00;45.30
44723;DHT22;30451;48.638;10.624;2023-06-26T08:19:12;27.00;45.20
44723;DHT22;30451;48.638;10.624;2023-06-26T08:21:38;27.00;45.10
44723;DHT22;30451;48.638;10.624;2023-06-26T08:24:03;27.00;45.40
44723;DHT22;30451;48.638;10.624;2023-06-26T08:26:29;27.00;45.30
44723;DHT22;30451;48.638;10.624;2023-06-26T08:28:55;27.10;45.20
44723;DHT22;30451;48.638;10.624;2023-06-26T08:31:20;27.10;45.50
44723;DHT22;30451;48.638;10.624;2023-06-26T08:33:47;27.10;45.20
44723;DHT22;30451;48.638;10.624;2023-06-26T08:36:12;27.10;44.90
44723;DHT22;30451;48.638;10.624;2023-06-26T08:38:38;27.10;45.20
44723;DHT22;30451;48.638;10.624;2023-06-26T08:41:07;27.20;45.00
44723;DHT22;30451;48.638;10.624;2023-06-26T08:43:34;27.20;45.40
44723;DHT22;30451;48.638;10.624;2023-06-26T08:46:00;27.20;45.20
44723;DHT22;30451;48.638;10.624;2023-06-26T08:48:25;27.20;45.20
44723;DHT22;30451;48.638;10.624;2023-06-26T08:50:55;27.20;45.10
44723;DHT22;30451;48.638;10.624;2023-06-26T08:53:56;27.20;45.30
44723;DHT22;30451;48.638;10.624;2023-06-26T08:56:24;27.20;45.30
44723;DHT22;30451;48.638;10.624;2023-06-26T08:58:50;27.20;45.30
44723;DHT22;30451;48.638;10.624;2023-06-26T09:01:16;27.20;45.20
44723;DHT22;30451;48.638;10.624;2023-06-26T09:03:43;27.20;45.30
44723;DHT22;30451;48.638;10.624;2023-06-26T09:06:08;27.30;45.10
44723;DHT22;30451;48.638;10.624;2023-06-26T09:08:34;27.30;44.90
44723;DHT22;30451;48.638;10.624;2023-06-26T09:11:00;27.30;44.90
44723;DHT22;30451;48.638;10.624;2023-06-26T09:13:25;27.30;45.10
44723;DHT22;30451;48.638;10.624;2023-06-26T09:15:54;27.30;45.00
44723;DHT22;30451;48.638;10.624;2023-06-26T09:18:21;27.40;45.20
44723;DHT22;30451;48.638;10.624;2023-06-26T09:20:47;27.40;45.20
44723;DHT22;30451;48.638;10.624;2023-06-26T09:23:13;27.40;45.10
44723;DHT22;30451;48.638;10.624;2023-06-26T09:25:40;27.30;45.00
44723;DHT22;30451;48.638;10.624;2023-06-26T09:28:07;27.30;45.10
44723;DHT22;30451;48.638;10.624;2023-06-26T09:30:33;27.40;44.90
44723;DHT22;30451;48.638;10.624;2023-06-26T09:33:14;27.40;44.90
44723;DHT22;30451;48.638;10.624;2023-06-26T09:35:41;27.40;44.90
44723;DHT22;30451;48.638;10.624;2023-06-26T09:38:06;27.40;45.00
44723;DHT22;30451;48.638;10.624;2023-06-26T09:40:32;27.40;45.10
44723;DHT22;30451;48.638;10.624;2023-06-26T09:43:04;27.40;45.20
44723;DHT22;30451;48.638;10.624;2023-06-26T09:45:32;27.50;45.40
44723;DHT22;30451;48.638;10.624;2023-06-26T09:48:00;27.50;45.30
44723;DHT22;30451;48.638;10.624;2023-06-26T09:50:28;27.50;45.20
44723;DHT22;30451;48.638;10.624;2023-06-26T09:52:55;27.50;45.30
44723;DHT22;30451;48.638;10.624;2023-06-26T09:55:20;27.50;45.20
44723;DHT22;30451;48.638;10.624;2023-06-26T09:57:50;27.50;45.00
44723;DHT22;30451;48.638;10.624;2023-06-26T10:00:16;27.60;45.50
44723;DHT22;30451;48.638;10.624;2023-06-26T10:02:42;27.60;45.20
44723;DHT22;30451;48.638;10.624;2023-06-26T10:05:07;27.50;44.80
44723;DHT22;30451;48.638;10.624;2023-06-26T10:07:34;27.50;44.70
44723;DHT22;30451;48.638;10.624;2023-06-26T10:10:02;27.50;44.70
44723;DHT22;30451;48.638;10.624;2023-06-26T10:12:29;27.50;44.80
44723;DHT22;30451;48.638;10.624;2023-06-26T10:14:56;27.50;44.80
44723;DHT22;30451;48.638;10.624;2023-06-26T10:17:25;27.50;44.80
44723;DHT22;30451;48.638;10.624;2023-06-26T10:19:53;27.50;45.30
44723;DHT22;30451;48.638;10.624;2023-06-26T10:22:24;27.50;45.10
44723;DHT22;30451;48.638;10.624;2023-06-26T10:24:51;27.60;45.00
44723;DHT22;30451;48.638;10.624;2023-06-26T10:27:19;27.60;44.90
44723;DHT22;30451;48.638;10.624;2023-06-26T10:29:56;27.60;44.90
44723;DHT22;30451;48.638;10.624;2023-06-26T10:32:25;27.60;44.80
44723;DHT22;30451;48.638;10.624;2023-06-26T10:34:52;27.60;44.90
44723;DHT22;30451;48.638;10.624;2023-06-26T10:37:18;27.60;44.80
44723;DHT22;30451;48.638;10.624;2023-06-26T10:39:50;27.60;44.80
44723;DHT22;30451;48.638;10.624;2023-06-26T10:42:17;27.60;44.80
44723;DHT22;30451;48.638;10.624;2023-06-26T10:44:45;27.60;44.80
44723;DHT22;30451;48.638;10.624;2023-06-26T10:47:30;27.60;44.80
44723;DHT22;30451;48.638;10.624;2023-06-26T10:49:56;27.60;44.80
44723;DHT22;30451;48.638;10.624;2023-06-26T10:52:26;27.60;45.00
44723;DHT22;30451;48.638;10.624;2023-06-26T10:54:54;27.60;44.90
44723;DHT22;30451;48.638;10.624;2023-06-26T10:57:24;27.70;44.80
44723;DHT22;30451;48.638;10.624;2023-06-26T11:00:11;27.70;44.70
44723;DHT22;30451;48.638;10.624;2023-06-26T11:02:52;27.60;44.60
44723;DHT22;30451;48.638;10.624;2023-06-26T11:05:28;27.60;44.70
44723;DHT22;30451;48.638;10.624;2023-06-26T11:08:06;27.60;44.70
44723;DHT22;30451;48.638;10.624;2023-06-26T11:10:52;27.60;44.70
44723;DHT22;30451;48.638;10.624;2023-06-26T11:13:19;27.60;44.70
44723;DHT22;30451;48.638;10.624;2023-06-26T11:15:50;27.60;44.70
44723;DHT22;30451;48.638;10.624;2023-06-26T11:18:16;27.60;45.00
44723;DHT22;30451;48.638;10.624;2023-06-26T11:20:42;27.60;44.90
44723;DHT22;30451;48.638;10.624;2023-06-26T11:23:08;27.60;44.80
44723;DHT22;30451;48.638;10.624;2023-06-26T11:25:38;27.70;44.80
44723;DHT22;30451;48.638;10.624;2023-06-26T11:28:05;27.70;44.80
44723;DHT22;30451;48.638;10.624;2023-06-26T11:30:31;27.70;44.80
44723;DHT22;30451;48.638;10.624;2023-06-26T11:33:04;27.70;44.90
44723;DHT22;30451;48.638;10.624;2023-06-26T11:35:30;27.70;44.80
44723;DHT22;30451;48.638;10.624;2023-06-26T11:37:57;27.80;44.90
44723;DHT22;30451;48.638;10.624;2023-06-26T11:40:25;27.80;45.00
44723;DHT22;30451;48.638;10.624;2023-06-26T11:42:57;27.80;45.20
44723;DHT22;30451;48.638;10.624;2023-06-26T11:45:23;27.80;45.10
44723;DHT22;30451;48.638;10.624;2023-06-26T11:47:49;27.80;45.30
44723;DHT22;30451;48.638;10.624;2023-06-26T11:50:15;27.80;45.30
44723;DHT22;30451;48.638;10.624;2023-06-26T11:52:42;27.90;45.10
44723;DHT22;30451;48.638;10.624;2023-06-26T11:55:08;27.90;45.10
44723;DHT22;30451;48.638;10.624;2023-06-26T11:57:36;27.90;45.20
44723;DHT22;30451;48.638;10.624;2023-06-26T12:00:14;27.90;45.10
44723;DHT22;30451;48.638;10.624;2023-06-26T12:02:42;27.90;45.60
44723;DHT22;30451;48.638;10.624;2023-06-26T12:05:08;27.90;45.10
44723;DHT22;30451;48.638;10.624;2023-06-26T12:07:34;27.90;45.10
44723;DHT22;30451;48.638;10.624;2023-06-26T12:10:02;28.00;45.50
44723;DHT22;30451;48.638;10.624;2023-06-26T12:12:28;27.90;45.40
44723;DHT22;30451;48.638;10.624;2023-06-26T12:14:54;27.90;45.80
44723;DHT22;30451;48.638;10.624;2023-06-26T12:17:23;28.00;46.20
44723;DHT22;30451;48.638;10.624;2023-06-26T12:19:49;28.00;46.00
44723;DHT22;30451;48.638;10.624;2023-06-26T12:22:16;28.00;45.80
44723;DHT22;30451;48.638;10.624;2023-06-26T12:24:42;28.00;46.10
44723;DHT22;30451;48.638;10.624;2023-06-26T12:27:13;28.00;45.80
44723;DHT22;30451;48.638;10.624;2023-06-26T12:29:40;28.10;46.20
44723;DHT22;30451;48.638;10.624;2023-06-26T12:32:10;28.10;46.70
44723;DHT22;30451;48.638;10.624;2023-06-26T12:34:37;28.10;46.40
44723;DHT22;30451;48.638;10.624;2023-06-26T12:37:12;28.10;46.00
44723;DHT22;30451;48.638;10.624;2023-06-26T12:42:18;28.10;46.00
44723;DHT22;30451;48.638;10.624;2023-06-26T12:44:45;28.10;46.20
44723;DHT22;30451;48.638;10.624;2023-06-26T12:47:10;28.20;46.60
44723;DHT22;30451;48.638;10.624;2023-06-26T12:49:40;28.10;45.70
44723;DHT22;30451;48.638;10.624;2023-06-26T12:52:09;28.10;46.50
44723;DHT22;30451;48.638;10.624;2023-06-26T12:54:35;28.20;47.70
44723;DHT22;30451;48.638;10.624;2023-06-26T12:57:01;28.20;48.20
44723;DHT22;30451;48.638;10.624;2023-06-26T12:59:33;28.20;47.30
44723;DHT22;30451;48.638;10.624;2023-06-26T13:01:59;28.30;46.70
44723;DHT22;30451;48.638;10.624;2023-06-26T13:04:25;28.30;46.40
44723;DHT22;30451;48.638;10.624;2023-06-26T13:06:51;28.30;46.20
44723;DHT22;30451;48.638;10.624;2023-06-26T13:09:20;28.30;46.40
44723;DHT22;30451;48.638;10.624;2023-06-26T13:11:45;28.30;46.40
44723;DHT22;30451;48.638;10.624;2023-06-26T13:14:11;28.30;46.50
44723;DHT22;30451;48.638;10.624;2023-06-26T13:16:37;28.30;46.40
44723;DHT22;30451;48.638;10.624;2023-06-26T13:19:03;28.30;46.50
44723;DHT22;30451;48.638;10.624;2023-06-26T13:21:29;28.30;46.60
44723;DHT22;30451;48.638;10.624;2023-06-26T13:23:55;28.30;46.30
44723;DHT22;30451;48.638;10.624;2023-06-26T13:26:21;28.30;46.20
44723;DHT22;30451;48.638;10.624;2023-06-26T13:28:48;28.40;46.30
44723;DHT22;30451;48.638;10.624;2023-06-26T13:31:14;28.40;46.20
44723;DHT22;30451;48.638;10.624;2023-06-26T13:33:40;28.40;46.00
44723;DHT22;30451;48.638;10.624;2023-06-26T13:36:05;28.40;46.00
44723;DHT22;30451;48.638;10.624;2023-06-26T13:38:33;28.40;45.90
44723;DHT22;30451;48.638;10.624;2023-06-26T13:41:00;28.50;46.10
44723;DHT22;30451;48.638;10.624;2023-06-26T13:43:29;28.50;46.00
44723;DHT22;30451;48.638;10.624;2023-06-26T13:45:55;28.50;45.90
44723;DHT22;30451;48.638;10.624;2023-06-26T13:48:21;28.50;45.90
44723;DHT22;30451;48.638;10.624;2023-06-26T13:50:49;28.50;46.00
44723;DHT22;30451;48.638;10.624;2023-06-26T13:53:15;28.50;46.00
44723;DHT22;30451;48.638;10.624;2023-06-26T13:55:41;28.50;46.00
44723;DHT22;30451;48.638;10.624;2023-06-26T13:58:07;28.50;46.00
44723;DHT22;30451;48.638;10.624;2023-06-26T14:00:34;28.50;46.00
44723;DHT22;30451;48.638;10.624;2023-06-26T14:03:04;28.50;46.00
44723;DHT22;30451;48.638;10.624;2023-06-26T14:05:30;28.50;45.90
44723;DHT22;30451;48.638;10.624;2023-06-26T14:07:56;28.50;45.80
44723;DHT22;30451;48.638;10.624;2023-06-26T14:10:22;28.60;45.80
44723;DHT22;30451;48.638;10.624;2023-06-26T14:12:48;28.50;46.00
44723;DHT22;30451;48.638;10.624;2023-06-26T14:15:14;28.60;46.10
44723;DHT22;30451;48.638;10.624;2023-06-26T14:17:40;28.50;45.70
44723;DHT22;30451;48.638;10.624;2023-06-26T14:20:09;28.60;45.90
44723;DHT22;30451;48.638;10.624;2023-06-26T14:22:41;28.60;45.90
44723;DHT22;30451;48.638;10.624;2023-06-26T14:25:08;28.60;45.80
44723;DHT22;30451;48.638;10.624;2023-06-26T14:27:34;28.60;45.70
44723;DHT22;30451;48.638;10.624;2023-06-26T14:29:59;28.70;46.30
44723;DHT22;30451;48.638;10.624;2023-06-26T14:32:25;28.70;45.70
44723;DHT22;30451;48.638;10.624;2023-06-26T14:34:51;28.70;45.70
44723;DHT22;30451;48.638;10.624;2023-06-26T14:37:18;28.70;45.70
44723;DHT22;30451;48.638;10.624;2023-06-26T14:39:45;28.70;45.70
44723;DHT22;30451;48.638;10.624;2023-06-26T14:42:10;28.80;45.70
44723;DHT22;30451;48.638;10.624;2023-06-26T14:44:36;28.80;45.60
44723;DHT22;30451;48.638;10.624;2023-06-26T14:47:02;28.80;45.50
44723;DHT22;30451;48.638;10.624;2023-06-26T14:49:28;28.80;45.50
44723;DHT22;30451;48.638;10.624;2023-06-26T14:51:53;28.80;45.50
44723;DHT22;30451;48.638;10.624;2023-06-26T14:54:19;28.80;45.50
44723;DHT22;30451;48.638;10.624;2023-06-26T14:56:44;28.70;45.50
44723;DHT22;30451;48.638;10.624;2023-06-26T14:59:11;28.70;45.50
44723;DHT22;30451;48.638;10.624;2023-06-26T15:01:38;28.70;45.60
44723;DHT22;30451;48.638;10.624;2023-06-26T15:04:04;28.60;45.50
44723;DHT22;30451;48.638;10.624;2023-06-26T15:06:30;28.60;45.50
44723;DHT22;30451;48.638;10.624;2023-06-26T15:08:55;28.60;45.60
44723;DHT22;30451;48.638;10.624;2023-06-26T15:11:21;28.60;45.60
44723;DHT22;30451;48.638;10.624;2023-06-26T15:13:47;28.60;45.60
44723;DHT22;30451;48.638;10.624;2023-06-26T15:16:12;28.60;45.60
44723;DHT22;30451;48.638;10.624;2023-06-26T15:18:38;28.60;45.60
44723;DHT22;30451;48.638;10.624;2023-06-26T15:21:03;28.50;45.60
44723;DHT22;30451;48.638;10.624;2023-06-26T15:23:29;28.60;45.70